createdAt,value
2022-10-11T06:42:02.026Z,84.696
2022-10-11T06:49:02.007Z,84.696
2022-10-11T06:56:01.927Z,85.508
2022-10-11T07:00:01.816Z,85.671
2022-10-11T07:07:01.503Z,85.671
2022-10-11T07:14:01.425Z,85.686
2022-10-11T07:21:01.667Z,85.86
2022-10-11T07:28:02.009Z,85.86
2022-10-11T07:35:02.477Z,85.86
2022-10-11T07:42:02.234Z,86.363
2022-10-11T07:49:01.499Z,86.354
2022-10-11T07:56:01.916Z,86.354
2022-10-11T08:00:01.753Z,86.367
2022-10-11T08:07:01.804Z,86.686
2022-10-11T08:14:01.498Z,86.686
2022-10-11T08:21:02.187Z,86.864
2022-10-11T08:28:01.922Z,87.237
2022-10-11T08:35:01.528Z,87.237
2022-10-11T08:42:01.606Z,87.446
2022-10-11T08:49:01.687Z,87.446
2022-10-11T08:56:02.060Z,87.596
2022-10-11T09:00:01.705Z,87.596
2022-10-11T09:07:04.923Z,87.596
2022-10-11T09:14:01.993Z,87.596
2022-10-11T09:21:01.352Z,87.417
2022-10-11T09:28:03.113Z,87.391
2022-10-11T09:35:01.746Z,87.824
2022-10-11T09:42:01.759Z,87.824
2022-10-11T09:49:02.229Z,87.889
2022-10-11T09:56:01.641Z,87.757
2022-10-11T10:00:02.366Z,87.757
2022-10-11T10:07:02.184Z,87.978
2022-10-11T10:14:01.345Z,88.067
2022-10-11T10:21:01.926Z,88.067
2022-10-11T10:28:01.424Z,87.721
2022-10-11T10:35:01.985Z,87.837
2022-10-11T10:42:01.606Z,87.935
2022-10-11T10:49:34.456Z,87.935
2022-10-11T10:56:02.651Z,87.869
2022-10-11T11:00:02.519Z,87.869
2022-10-11T11:07:01.820Z,87.732
2022-10-11T11:14:02.119Z,87.392
2022-10-11T11:21:02.352Z,87.146
2022-10-11T11:28:01.715Z,87.146
2022-10-11T11:35:02.363Z,87.173
2022-10-11T11:42:02.319Z,86.902
2022-10-11T11:49:01.880Z,86.732
2022-10-11T11:56:01.878Z,86.732
2022-10-11T12:00:02.552Z,86.258
2022-10-11T12:07:15.291Z,86.258
2022-10-11T12:14:01.406Z,85.994
2022-10-11T12:21:02.244Z,85.994
2022-10-11T12:28:01.448Z,84.448
2022-10-11T12:35:01.570Z,84.448
2022-10-11T12:42:05.763Z,83.658
2022-10-11T12:49:02.135Z,82.326
2022-10-11T12:56:01.991Z,82.326
2022-10-11T13:00:01.673Z,81.52
2022-10-11T13:07:06.431Z,80.891
2022-10-11T13:14:01.696Z,80.891
2022-10-11T13:21:01.920Z,80.252
2022-10-11T13:28:01.558Z,78.783
2022-10-11T13:35:02.511Z,78.783
2022-10-11T13:42:01.783Z,78.343
2022-10-11T13:49:01.871Z,77.635
2022-10-11T13:56:02.426Z,76.915
2022-10-11T14:00:02.245Z,76.915
2022-10-11T14:07:01.468Z,76.603
2022-10-11T14:14:02.058Z,76.274
2022-10-11T14:21:02.306Z,76.274
2022-10-11T14:28:01.850Z,76.193
2022-10-11T14:35:01.681Z,76.339
2022-10-11T14:42:01.875Z,76.339
2022-10-11T14:49:01.827Z,75.88
2022-10-11T14:56:02.238Z,75.037
2022-10-11T15:00:02.151Z,75.037
2022-10-11T15:07:01.498Z,74.538
2022-10-11T15:14:01.715Z,74.671
2022-10-11T15:21:01.371Z,74.671
2022-10-11T15:28:01.563Z,74.75
2022-10-11T15:35:02.083Z,74.696
2022-10-11T15:42:01.566Z,74.964
2022-10-11T15:49:06.593Z,74.964
2022-10-11T15:56:01.462Z,74.999
2022-10-11T16:00:02.071Z,74.999
2022-10-11T16:07:02.041Z,75.258
2022-10-11T16:14:01.678Z,75.414
2022-10-11T16:21:01.788Z,75.205
2022-10-11T16:28:01.531Z,75.205
2022-10-11T16:35:01.953Z,74.922
2022-10-11T16:42:01.499Z,74.625
2022-10-11T16:49:01.428Z,74.436
2022-10-11T16:56:01.687Z,74.436
2022-10-11T17:00:02.273Z,74.315
2022-10-11T17:07:02.069Z,74.315
2022-10-11T17:14:02.006Z,74.408
2022-10-11T17:21:01.856Z,73.998
2022-10-11T17:28:01.376Z,73.759
2022-10-11T17:35:02.596Z,73.759
2022-10-11T17:42:01.389Z,73.517
2022-10-11T17:49:02.156Z,73.315
2022-10-11T17:56:01.618Z,73.547
2022-10-11T18:00:02.298Z,73.547
2022-10-11T18:07:02.159Z,73.848
2022-10-11T18:14:01.458Z,73.848
2022-10-11T18:21:01.595Z,73.848
2022-10-11T18:28:01.552Z,74.15
2022-10-11T18:35:01.516Z,74.131
2022-10-11T18:42:01.663Z,74.131
2022-10-11T18:49:01.429Z,74.304
2022-10-11T18:56:01.577Z,74.215
2022-10-11T19:00:11.793Z,74.215
2022-10-11T19:07:01.388Z,74.28
2022-10-11T19:14:02.080Z,74.243
2022-10-11T19:21:01.638Z,74.243
2022-10-11T19:28:01.968Z,74.059
2022-10-11T19:35:01.961Z,73.737
2022-10-11T19:42:01.765Z,73.737
2022-10-11T19:49:02.264Z,73.627
2022-10-11T19:56:01.636Z,73.537
2022-10-11T20:00:02.277Z,73.537
2022-10-11T20:07:01.453Z,73.393
2022-10-11T20:14:02.302Z,73.089
2022-10-11T20:21:01.797Z,73.068
2022-10-11T20:28:01.775Z,73.068
2022-10-11T20:35:02.028Z,73.068
2022-10-11T20:42:02.038Z,72.878
2022-10-11T20:49:02.433Z,72.878
2022-10-11T20:56:01.988Z,72.953
2022-10-11T21:00:01.559Z,73.067
2022-10-11T21:07:01.905Z,73.067
2022-10-11T21:14:02.203Z,73.017
2022-10-11T21:21:02.256Z,73.169
2022-10-11T21:28:01.912Z,73.169
2022-10-11T21:35:01.671Z,73.32
2022-10-11T21:42:02.294Z,73.493
2022-10-11T21:49:01.435Z,73.665
2022-10-11T21:56:01.463Z,73.665
2022-10-11T22:00:02.094Z,73.665
2022-10-11T22:07:02.216Z,73.962
2022-10-11T22:14:02.326Z,73.962
2022-10-11T22:21:01.355Z,74.234
2022-10-11T22:28:01.843Z,74.033
2022-10-11T22:35:02.292Z,74.033
2022-10-11T22:42:01.650Z,74.185
2022-10-11T22:49:01.823Z,74.213
2022-10-11T22:56:02.291Z,74.551
2022-10-11T23:00:01.927Z,74.551
2022-10-11T23:07:04.985Z,74.933
2022-10-11T23:14:01.370Z,74.933
2022-10-11T23:21:02.113Z,75.574
2022-10-11T23:28:02.232Z,76.075
2022-10-11T23:35:02.481Z,76.623
2022-10-11T23:42:01.853Z,76.623
2022-10-11T23:49:01.862Z,76.797
2022-10-11T23:56:01.668Z,76.603
